createdAt,value
2016-11-02T00:00:33.092Z,0
2016-11-02T00:01:32.754Z,0
2016-11-02T00:02:33.015Z,0
2016-11-02T00:03:32.684Z,0
2016-11-02T00:04:32.032Z,0
2016-11-02T00:05:32.902Z,0
2016-11-02T00:06:32.873Z,0
2016-11-02T00:07:32.213Z,0
2016-11-02T00:08:32.491Z,0
2016-11-02T00:09:32.742Z,0
2016-11-02T00:10:32.403Z,0
2016-11-02T00:11:32.708Z,0
2016-11-02T00:12:32.633Z,0
2016-11-02T00:13:32.281Z,0
2016-11-02T00:14:32.548Z,0
2016-11-02T00:15:32.207Z,0
2016-11-02T00:16:32.515Z,0
2016-11-02T00:17:32.429Z,0
2016-11-02T00:18:32.081Z,0
2016-11-02T00:19:32.360Z,0
2016-11-02T00:20:32.349Z,0
2016-11-02T00:21:32.280Z,0
2016-11-02T00:22:32.244Z,0
2016-11-02T00:23:31.896Z,0
2016-11-02T00:24:31.855Z,0
2016-11-02T00:25:32.117Z,0
2016-11-02T00:26:32.084Z,0
2016-11-02T00:27:32.040Z,0
2016-11-02T00:28:32.010Z,0
2016-11-02T00:29:31.969Z,0
2016-11-02T00:30:31.927Z,0
2016-11-02T00:31:31.887Z,0
2016-11-02T00:32:31.542Z,0
2016-11-02T00:33:31.514Z,0
2016-11-02T00:34:31.790Z,0
2016-11-02T00:35:31.434Z,0
2016-11-02T00:36:31.741Z,0
2016-11-02T00:37:31.698Z,0
2016-11-02T00:38:31.624Z,0
2016-11-02T00:39:31.329Z,0
2016-11-02T00:40:31.245Z,0
2016-11-02T00:41:31.208Z,0
2016-11-02T00:42:31.166Z,0
2016-11-02T00:43:31.474Z,0
2016-11-02T00:44:31.394Z,0
2016-11-02T00:45:31.353Z,0
2016-11-02T00:46:31.051Z,0
2016-11-02T00:47:31.278Z,0
2016-11-02T00:48:30.937Z,0
2016-11-02T00:49:30.297Z,0
2016-11-02T00:50:30.557Z,0
2016-11-02T00:51:31.129Z,0
2016-11-02T00:52:31.080Z,0
2016-11-02T00:53:31.053Z,0
2016-11-02T00:54:31.006Z,0
2016-11-02T00:55:31.013Z,0
2016-11-02T00:56:30.939Z,0
2016-11-02T00:57:30.896Z,0
2016-11-02T00:58:30.857Z,0
2016-11-02T00:59:30.521Z,0
2016-11-02T01:00:30.786Z,0
2016-11-02T01:01:30.743Z,0
2016-11-02T01:02:30.405Z,0
2016-11-02T01:03:30.370Z,0
2016-11-02T01:04:30.630Z,0
2016-11-02T01:05:30.293Z,0
2016-11-02T01:06:30.258Z,0
2016-11-02T01:07:30.211Z,0
2016-11-02T01:08:29.870Z,0
2016-11-02T01:09:30.448Z,0
2016-11-02T01:10:30.105Z,0
2016-11-02T01:11:30.410Z,0
2016-11-02T01:12:30.325Z,0
2016-11-02T01:13:29.986Z,0
2016-11-02T01:14:29.654Z,0
2016-11-02T01:15:29.918Z,0
2016-11-02T01:16:30.217Z,0
2016-11-02T01:17:29.840Z,0
2016-11-02T01:18:29.795Z,0
2016-11-02T01:19:30.059Z,0
2016-11-02T01:20:30.022Z,0
2016-11-02T01:21:29.990Z,0
2016-11-02T01:22:29.980Z,0
2016-11-02T01:23:29.920Z,0
2016-11-02T01:24:29.916Z,0
2016-11-02T01:25:29.838Z,0
2016-11-02T01:26:29.196Z,0
2016-11-02T01:27:29.458Z,0
2016-11-02T01:28:28.822Z,0
2016-11-02T01:29:29.394Z,0
2016-11-02T01:30:29.646Z,0
2016-11-02T01:31:29.318Z,0
2016-11-02T01:32:29.581Z,0
2016-11-02T01:33:29.543Z,0
2016-11-02T01:34:29.237Z,0
2016-11-02T01:35:29.158Z,0
2016-11-02T01:36:29.420Z,0
2016-11-02T01:37:29.393Z,0
2016-11-02T01:38:28.747Z,0
2016-11-02T01:39:29.311Z,0
2016-11-02T01:40:29.007Z,0
2016-11-02T01:41:29.234Z,0
2016-11-02T01:42:29.199Z,0
2016-11-02T01:43:28.872Z,0
2016-11-02T01:44:29.125Z,0
2016-11-02T01:45:29.093Z,0
2016-11-02T01:46:28.751Z,0
2016-11-02T01:47:28.745Z,0
2016-11-02T01:48:28.981Z,0
2016-11-02T01:49:28.631Z,0
2016-11-02T01:50:28.897Z,0
2016-11-02T01:51:28.564Z,0
2016-11-02T01:52:28.223Z,0
2016-11-02T01:53:28.207Z,0
2016-11-02T01:54:28.751Z,0
2016-11-02T01:55:28.116Z,0
2016-11-02T01:56:28.682Z,0
2016-11-02T01:57:28.632Z,0
2016-11-02T01:58:28.610Z,0
2016-11-02T01:59:28.257Z,0
2016-11-02T02:00:28.528Z,0
2016-11-02T02:01:28.184Z,0
2016-11-02T02:02:28.450Z,0
2016-11-02T02:03:28.413Z,0
2016-11-02T02:04:28.375Z,0
2016-11-02T02:05:28.041Z,0
2016-11-02T02:06:28.306Z,0
2016-11-02T02:07:27.958Z,0
2016-11-02T02:08:27.619Z,0
2016-11-02T02:09:28.186Z,0
2016-11-02T02:10:27.552Z,0
2016-11-02T02:11:28.122Z,0
2016-11-02T02:12:28.085Z,0
2016-11-02T02:13:27.441Z,0
2016-11-02T02:14:28.005Z,0
2016-11-02T02:15:27.658Z,0
2016-11-02T02:16:27.924Z,0
2016-11-02T02:17:27.892Z,0
2016-11-02T02:18:27.862Z,0
2016-11-02T02:19:27.818Z,0
2016-11-02T02:20:27.784Z,0
2016-11-02T02:21:27.745Z,0
2016-11-02T02:22:27.396Z,0
2016-11-02T02:23:27.662Z,0
2016-11-02T02:24:27.627Z,0
2016-11-02T02:25:27.618Z,0
2016-11-02T02:26:27.560Z,0
2016-11-02T02:27:27.216Z,0
2016-11-02T02:28:27.484Z,0
2016-11-02T02:29:27.166Z,0
2016-11-02T02:30:27.401Z,0
2016-11-02T02:31:27.066Z,0
2016-11-02T02:32:27.025Z,0
2016-11-02T02:33:27.289Z,0
2016-11-02T02:34:26.949Z,0
2016-11-02T02:35:27.221Z,0
2016-11-02T02:36:27.182Z,0
2016-11-02T02:37:27.144Z,0
2016-11-02T02:38:26.494Z,0
2016-11-02T02:39:26.762Z,0
2016-11-02T02:40:26.734Z,0
2016-11-02T02:41:26.688Z,0
2016-11-02T02:42:26.654Z,0
2016-11-02T02:43:26.313Z,0
2016-11-02T02:44:26.583Z,0
2016-11-02T02:45:26.539Z,0
2016-11-02T02:46:26.500Z,0
2016-11-02T02:47:26.770Z,0
2016-11-02T02:48:26.728Z,0
2016-11-02T02:49:26.695Z,0
2016-11-02T02:50:26.354Z,0
2016-11-02T02:51:26.626Z,0
2016-11-02T02:52:26.587Z,0
2016-11-02T02:53:25.943Z,0
2016-11-02T02:54:26.506Z,0
2016-11-02T02:55:26.472Z,0
2016-11-02T02:56:25.827Z,0
2016-11-02T02:57:25.794Z,0
2016-11-02T02:58:26.360Z,0
2016-11-02T02:59:26.028Z,0
2016-11-02T03:00:26.325Z,0
2016-11-02T03:01:25.939Z,0
2016-11-02T03:02:26.213Z,0
2016-11-02T03:03:25.869Z,0
2016-11-02T03:04:26.038Z,0
2016-11-02T03:05:25.189Z,0
2016-11-02T03:06:25.753Z,0
2016-11-02T03:07:26.021Z,0
2016-11-02T03:08:25.720Z,0
2016-11-02T03:09:25.945Z,0
2016-11-02T03:10:25.305Z,0
2016-11-02T03:11:25.864Z,0
2016-11-02T03:12:25.830Z,0
2016-11-02T03:13:25.488Z,0
2016-11-02T03:14:25.796Z,0
2016-11-02T03:15:25.412Z,0
2016-11-02T03:16:25.383Z,0
2016-11-02T03:17:25.640Z,0
2016-11-02T03:18:25.599Z,0
2016-11-02T03:19:25.269Z,0
2016-11-02T03:20:25.225Z,0
2016-11-02T03:21:25.529Z,0
2016-11-02T03:22:25.451Z,0
2016-11-02T03:23:25.149Z,0
2016-11-02T03:24:25.076Z,0
2016-11-02T03:25:25.345Z,0
2016-11-02T03:26:25.300Z,0
2016-11-02T03:27:25.267Z,0
2016-11-02T03:28:24.928Z,0
2016-11-02T03:29:24.920Z,0
2016-11-02T03:30:39.755Z,0
2016-11-02T03:31:25.120Z,0
2016-11-02T03:32:25.078Z,0
2016-11-02T03:33:24.773Z,0
2016-11-02T03:34:25.006Z,0
2016-11-02T03:35:24.691Z,0
2016-11-02T03:36:24.624Z,0
2016-11-02T03:37:24.892Z,0
2016-11-02T03:38:24.855Z,0
2016-11-02T03:39:24.512Z,0
2016-11-02T03:40:24.482Z,0
2016-11-02T03:41:24.446Z,0
2016-11-02T03:42:24.404Z,0
2016-11-02T03:43:24.698Z,0
2016-11-02T03:44:24.627Z,0
2016-11-02T03:45:24.289Z,0
2016-11-02T03:46:23.948Z,0
2016-11-02T03:47:24.218Z,0
2016-11-02T03:48:24.477Z,0
2016-11-02T03:49:24.172Z,0
2016-11-02T03:50:24.447Z,0
2016-11-02T03:51:24.373Z,0
2016-11-02T03:52:24.328Z,0
2016-11-02T03:53:23.683Z,0
2016-11-02T03:54:24.252Z,0
2016-11-02T03:55:24.222Z,0
2016-11-02T03:56:23.586Z,0
2016-11-02T03:57:23.838Z,0
2016-11-02T03:58:23.801Z,0
2016-11-02T03:59:23.768Z,0
2016-11-02T04:00:24.034Z,0
2016-11-02T04:01:24.024Z,0
2016-11-02T04:02:23.954Z,0
2016-11-02T04:03:23.945Z,0
2016-11-02T04:04:23.940Z,0
2016-11-02T04:05:23.542Z,0
2016-11-02T04:06:23.508Z,0
2016-11-02T04:07:23.465Z,0
2016-11-02T04:08:23.729Z,0
2016-11-02T04:09:23.122Z,0
2016-11-02T04:10:23.354Z,0
2016-11-02T04:11:23.348Z,0
2016-11-02T04:12:22.998Z,0
2016-11-02T04:13:22.946Z,0
2016-11-02T04:14:23.209Z,0
2016-11-02T04:15:23.170Z,0
2016-11-02T04:16:23.134Z,0
2016-11-02T04:17:23.398Z,0
2016-11-02T04:18:23.368Z,0
2016-11-02T04:19:23.022Z,0
2016-11-02T04:20:23.282Z,0
2016-11-02T04:21:22.645Z,0
2016-11-02T04:22:23.213Z,0
2016-11-02T04:23:23.174Z,0
2016-11-02T04:24:23.136Z,0
2016-11-02T04:25:23.138Z,0
2016-11-02T04:26:22.760Z,0
2016-11-02T04:27:23.027Z,0
2016-11-02T04:28:23.020Z,0
2016-11-02T04:29:22.961Z,0
2016-11-02T04:30:22.616Z,0
2016-11-02T04:31:22.880Z,0
2016-11-02T04:33:22.806Z,0
2016-11-02T04:34:22.459Z,0
2016-11-02T04:35:22.424Z,0
2016-11-02T04:36:22.090Z,0
2016-11-02T04:37:22.651Z,0
2016-11-02T04:38:22.007Z,0
2016-11-02T04:39:22.576Z,0
2016-11-02T04:40:22.533Z,0
2016-11-02T04:41:22.203Z,0
2016-11-02T04:42:22.467Z,0
2016-11-02T04:43:21.522Z,0
2016-11-02T04:44:22.088Z,0
2016-11-02T04:45:22.352Z,0
2016-11-02T04:46:22.310Z,0
2016-11-02T04:47:21.981Z,0
2016-11-02T04:48:22.240Z,0
2016-11-02T04:49:21.897Z,0
2016-11-02T04:50:21.859Z,0
2016-11-02T04:51:21.822Z,0
2016-11-02T04:52:22.093Z,0
2016-11-02T04:53:21.745Z,0
2016-11-02T04:54:21.406Z,0
2016-11-02T04:55:21.672Z,0
2016-11-02T04:56:21.635Z,0
2016-11-02T04:57:21.900Z,0
2016-11-02T04:58:21.904Z,0
2016-11-02T04:59:21.550Z,0
2016-11-02T05:00:21.788Z,0
2016-11-02T05:01:21.454Z,0
2016-11-02T05:02:21.409Z,0
2016-11-02T05:03:21.674Z,0
2016-11-02T05:04:21.639Z,0
2016-11-02T05:05:21.616Z,0
2016-11-02T05:06:20.953Z,0
2016-11-02T05:07:21.531Z,0
2016-11-02T05:08:21.550Z,0
2016-11-02T05:09:21.149Z,0
2016-11-02T05:10:21.109Z,0
2016-11-02T05:11:20.771Z,0
2016-11-02T05:12:21.034Z,0
2016-11-02T05:13:21.000Z,0
2016-11-02T05:14:20.961Z,0
2016-11-02T05:15:21.224Z,0
2016-11-02T05:16:20.612Z,0
2016-11-02T05:17:20.841Z,0
2016-11-02T05:18:20.835Z,0
2016-11-02T05:19:20.483Z,0
2016-11-02T05:20:20.466Z,0
2016-11-02T05:21:20.691Z,0
2016-11-02T05:22:20.653Z,0
2016-11-02T05:23:20.924Z,0
2016-11-02T05:24:20.889Z,0
2016-11-02T05:25:20.843Z,0
2016-11-02T05:26:20.814Z,0
2016-11-02T05:27:20.807Z,0
2016-11-02T05:28:20.435Z,0
2016-11-02T05:29:20.698Z,0
2016-11-02T05:30:20.659Z,0
2016-11-02T05:31:20.633Z,0
2016-11-02T05:32:20.590Z,0
2016-11-02T05:33:19.959Z,0
2016-11-02T05:34:20.204Z,0
2016-11-02T05:35:20.526Z,0
2016-11-02T05:36:20.478Z,0
2016-11-02T05:37:20.097Z,0
2016-11-02T05:38:20.357Z,0
2016-11-02T05:39:20.321Z,0
2016-11-02T05:40:19.991Z,0
2016-11-02T05:41:20.251Z,0
2016-11-02T05:42:19.599Z,0
2016-11-02T05:43:20.176Z,0
2016-11-02T05:44:20.127Z,0
2016-11-02T05:45:19.494Z,0
2016-11-02T05:46:20.061Z,0
2016-11-02T05:47:20.019Z,0
2016-11-02T05:48:19.983Z,0
2016-11-02T05:49:19.951Z,0
2016-11-02T05:50:19.909Z,0
2016-11-02T05:51:19.871Z,0
2016-11-02T05:52:19.529Z,0
2016-11-02T05:53:19.801Z,0
2016-11-02T05:54:19.763Z,0
2016-11-02T05:55:19.757Z,0
2016-11-02T05:56:19.685Z,0
2016-11-02T05:57:19.345Z,0
2016-11-02T05:58:19.002Z,0
2016-11-02T05:59:19.576Z,0
2016-11-02T06:00:19.540Z,0
2016-11-02T06:01:18.941Z,0
2016-11-02T06:02:19.488Z,0
2016-11-02T06:03:19.430Z,0
2016-11-02T06:04:19.079Z,0
2016-11-02T06:05:18.736Z,0
2016-11-02T06:06:19.303Z,0
2016-11-02T06:07:18.968Z,0
2016-11-02T06:08:19.240Z,0
2016-11-02T06:09:19.201Z,0
2016-11-02T06:10:18.857Z,0
2016-11-02T06:11:18.848Z,0
2016-11-02T06:12:18.788Z,0
2016-11-02T06:13:19.062Z,0
2016-11-02T06:14:19.112Z,0
2016-11-02T06:15:18.985Z,0
2016-11-02T06:16:18.065Z,0
2016-11-02T06:17:18.894Z,5
2016-11-02T06:18:18.563Z,5
2016-11-02T06:19:18.518Z,5
2016-11-02T06:20:18.181Z,5
2016-11-02T06:21:18.783Z,10
2016-11-02T06:22:18.407Z,10
2016-11-02T06:23:18.388Z,10
2016-11-02T06:24:18.650Z,10
2016-11-02T06:25:18.301Z,15
2016-11-02T06:26:18.565Z,15
2016-11-02T06:27:18.255Z,20
2016-11-02T06:28:18.188Z,15
2016-11-02T06:29:18.457Z,10
2016-11-02T06:30:18.415Z,20
2016-11-02T06:31:18.082Z,15
2016-11-02T06:32:18.345Z,15
2016-11-02T06:33:18.303Z,15
2016-11-02T06:34:17.962Z,15
2016-11-02T06:35:18.231Z,15
2016-11-02T06:36:18.191Z,15
2016-11-02T06:37:17.852Z,20
2016-11-02T06:38:18.120Z,15
2016-11-02T06:39:18.086Z,20
2016-11-02T06:40:18.044Z,20
2016-11-02T06:41:18.020Z,20
2016-11-02T06:42:17.971Z,15
2016-11-02T06:43:17.932Z,25
2016-11-02T06:44:17.895Z,25
2016-11-02T06:45:17.866Z,30
2016-11-02T06:46:17.819Z,30
2016-11-02T06:47:17.483Z,35
2016-11-02T06:48:17.748Z,30
2016-11-02T06:49:17.404Z,35
2016-11-02T06:50:17.372Z,45
2016-11-02T06:51:17.030Z,40
2016-11-02T06:52:17.593Z,30
2016-11-02T06:53:17.265Z,35
2016-11-02T06:54:17.223Z,40
2016-11-02T06:55:17.489Z,45
2016-11-02T06:56:17.460Z,45
2016-11-02T06:57:17.410Z,40
2016-11-02T06:58:17.385Z,35
2016-11-02T06:59:17.339Z,35
2016-11-02T07:00:17.004Z,40
2016-11-02T07:01:17.317Z,35
2016-11-02T07:02:17.236Z,20
2016-11-02T07:03:17.193Z,20
2016-11-02T07:04:17.185Z,20
2016-11-02T07:05:17.119Z,25
2016-11-02T07:06:16.783Z,35
2016-11-02T07:07:17.086Z,40
2016-11-02T07:08:16.708Z,45
2016-11-02T07:09:16.988Z,55
2016-11-02T07:10:16.933Z,65
2016-11-02T07:11:16.606Z,65
2016-11-02T07:12:16.563Z,65
2016-11-02T07:13:16.836Z,70
2016-11-02T07:14:16.497Z,70
2016-11-02T07:15:16.759Z,85
2016-11-02T07:16:16.748Z,90
2016-11-02T07:17:16.734Z,85
2016-11-02T07:18:16.350Z,90
2016-11-02T07:19:16.007Z,100
2016-11-02T07:20:16.568Z,115
2016-11-02T07:21:16.539Z,125
2016-11-02T07:22:16.202Z,125
2016-11-02T07:23:16.165Z,135
2016-11-02T07:24:16.137Z,145
2016-11-02T07:25:16.393Z,150
2016-11-02T07:26:16.057Z,145
2016-11-02T07:27:16.357Z,160
2016-11-02T07:28:16.287Z,135
2016-11-02T07:29:16.243Z,140
2016-11-02T07:30:16.213Z,150
2016-11-02T07:31:15.571Z,150
2016-11-02T07:32:16.137Z,150
2016-11-02T07:33:15.831Z,145
2016-11-02T07:34:16.073Z,160
2016-11-02T07:35:15.731Z,150
2016-11-02T07:36:15.986Z,145
2016-11-02T07:37:15.954Z,125
2016-11-02T07:38:15.607Z,125
2016-11-02T07:39:15.566Z,140
2016-11-02T07:40:15.558Z,150
2016-11-02T07:41:15.916Z,130
2016-11-02T07:42:15.468Z,130
2016-11-02T07:43:15.125Z,165
2016-11-02T07:44:15.400Z,185
2016-11-02T07:45:15.366Z,205
2016-11-02T07:46:15.012Z,195
2016-11-02T07:47:15.604Z,205
2016-11-02T07:48:15.556Z,360
2016-11-02T07:49:14.912Z,375
2016-11-02T07:50:15.171Z,655
2016-11-02T07:51:14.832Z,650
2016-11-02T07:52:15.420Z,695
2016-11-02T07:53:15.364Z,705
2016-11-02T07:54:14.724Z,700
2016-11-02T07:55:15.009Z,350
2016-11-02T07:56:15.315Z,365
2016-11-02T07:57:14.620Z,430
2016-11-02T07:58:15.204Z,530
2016-11-02T07:59:14.861Z,400
2016-11-02T08:00:15.140Z,480
2016-11-02T08:01:14.491Z,870
2016-11-02T08:02:14.450Z,760
2016-11-02T08:03:15.046Z,700
2016-11-02T08:04:14.693Z,705
2016-11-02T08:05:14.667Z,305
2016-11-02T08:06:14.932Z,580
2016-11-02T08:07:14.595Z,285
2016-11-02T08:08:14.863Z,340
2016-11-02T08:09:14.536Z,600
2016-11-02T08:10:14.502Z,405
2016-11-02T08:11:14.769Z,450
2016-11-02T08:12:14.735Z,530
2016-11-02T08:13:14.429Z,750
2016-11-02T08:14:14.077Z,630
2016-11-02T08:15:14.353Z,395
2016-11-02T08:16:14.014Z,410
2016-11-02T08:17:14.287Z,715
2016-11-02T08:18:14.257Z,425
2016-11-02T08:19:14.531Z,500
2016-11-02T08:20:14.198Z,525
2016-11-02T08:21:14.167Z,500
2016-11-02T08:22:13.837Z,400
2016-11-02T08:23:14.107Z,690
2016-11-02T08:24:14.083Z,440
2016-11-02T08:25:14.051Z,445
2016-11-02T08:26:14.343Z,375
2016-11-02T08:27:14.293Z,405
2016-11-02T08:28:13.967Z,440
2016-11-02T08:29:14.250Z,405
2016-11-02T08:30:13.911Z,395
2016-11-02T08:31:13.929Z,940
2016-11-02T08:32:13.547Z,740
2016-11-02T08:33:14.114Z,635
2016-11-02T08:34:13.791Z,610
2016-11-02T08:35:14.059Z,330
2016-11-02T08:36:13.735Z,315
2016-11-02T08:37:13.398Z,320
2016-11-02T08:38:14.027Z,320
2016-11-02T08:39:13.644Z,315
2016-11-02T08:40:13.618Z,375
2016-11-02T08:41:13.889Z,395
2016-11-02T08:42:13.552Z,325
2016-11-02T08:43:13.528Z,290
2016-11-02T08:44:13.494Z,255
2016-11-02T08:45:13.774Z,275
2016-11-02T08:46:13.467Z,295
2016-11-02T08:47:13.414Z,355
2016-11-02T08:48:13.400Z,505
2016-11-02T08:49:13.358Z,525
2016-11-02T08:50:12.976Z,880
2016-11-02T08:51:13.617Z,945
2016-11-02T08:52:13.331Z,705
2016-11-02T08:53:13.237Z,710
2016-11-02T08:54:13.508Z,890
2016-11-02T08:55:13.190Z,620
2016-11-02T08:56:13.147Z,560
2016-11-02T08:57:12.828Z,590
2016-11-02T08:58:13.393Z,705
2016-11-02T08:59:13.373Z,565
2016-11-02T09:00:12.738Z,765
2016-11-02T09:01:13.010Z,575
2016-11-02T09:02:12.987Z,610
2016-11-02T09:03:12.956Z,430
2016-11-02T09:04:12.325Z,420
2016-11-02T09:05:13.202Z,400
2016-11-02T09:06:12.870Z,385
2016-11-02T09:07:12.539Z,380
2016-11-02T09:08:12.517Z,410
2016-11-02T09:09:12.789Z,400
2016-11-02T09:10:13.061Z,395
2016-11-02T09:11:12.733Z,385
2016-11-02T09:12:12.751Z,385
2016-11-02T09:13:12.373Z,400
2016-11-02T09:14:12.645Z,390
2016-11-02T09:15:12.634Z,375
2016-11-02T09:16:12.599Z,365
2016-11-02T09:17:12.265Z,360
2016-11-02T09:18:12.848Z,360
2016-11-02T09:19:12.215Z,360
2016-11-02T09:20:12.477Z,350
2016-11-02T09:21:12.455Z,330
2016-11-02T09:22:12.721Z,315
2016-11-02T09:23:12.690Z,320
2016-11-02T09:24:12.060Z,320
2016-11-02T09:25:12.329Z,325
2016-11-02T09:26:12.636Z,325
2016-11-02T09:27:12.585Z,325
2016-11-02T09:28:12.602Z,315
2016-11-02T09:29:12.208Z,325
2016-11-02T09:30:12.176Z,335
2016-11-02T09:31:12.146Z,335
2016-11-02T09:32:12.420Z,330
2016-11-02T09:33:11.479Z,315
2016-11-02T09:34:11.749Z,320
2016-11-02T09:35:12.025Z,340
2016-11-02T09:36:12.003Z,365
2016-11-02T09:37:12.303Z,370
2016-11-02T09:38:11.637Z,380
2016-11-02T09:39:11.905Z,385
2016-11-02T09:40:11.877Z,410
2016-11-02T09:41:11.838Z,415
2016-11-02T09:42:11.503Z,415
2016-11-02T09:43:12.121Z,410
2016-11-02T09:44:11.759Z,420
2016-11-02T09:45:11.719Z,415
2016-11-02T09:46:11.693Z,645
2016-11-02T09:47:11.988Z,490
2016-11-02T09:48:11.622Z,520
2016-11-02T09:49:11.629Z,485
2016-11-02T09:50:11.564Z,475
2016-11-02T09:51:10.927Z,465
2016-11-02T09:52:11.800Z,470
2016-11-02T09:53:11.165Z,475
2016-11-02T09:54:11.430Z,415
2016-11-02T09:55:11.405Z,475
2016-11-02T09:56:11.372Z,445
2016-11-02T09:57:11.685Z,610
2016-11-02T09:58:11.643Z,540
2016-11-02T09:59:11.294Z,495
2016-11-02T10:00:11.556Z,490
2016-11-02T10:01:11.525Z,1110
2016-11-02T10:02:10.893Z,640
2016-11-02T10:03:11.165Z,645
2016-11-02T10:04:11.134Z,1110
2016-11-02T10:05:10.803Z,1560
2016-11-02T10:06:11.372Z,1450
2016-11-02T10:07:11.340Z,1075
2016-11-02T10:08:11.011Z,680
2016-11-02T10:09:10.987Z,460
2016-11-02T10:10:11.255Z,515
2016-11-02T10:11:10.931Z,405
2016-11-02T10:12:11.199Z,445
2016-11-02T10:13:10.879Z,465
2016-11-02T10:14:10.542Z,495
2016-11-02T10:15:11.117Z,610
2016-11-02T10:16:11.095Z,600
2016-11-02T10:17:11.064Z,615
2016-11-02T10:18:10.778Z,475
2016-11-02T10:19:10.752Z,465
2016-11-02T10:20:10.731Z,465
2016-11-02T10:21:10.390Z,480
2016-11-02T10:22:10.624Z,485
2016-11-02T10:23:10.670Z,495
2016-11-02T10:24:10.568Z,530
2016-11-02T10:25:10.240Z,860
2016-11-02T10:26:10.829Z,750
2016-11-02T10:27:10.483Z,800
2016-11-02T10:28:10.758Z,880
2016-11-02T10:29:10.733Z,820
2016-11-02T10:30:10.403Z,805
2016-11-02T10:31:10.682Z,700
2016-11-02T10:32:10.647Z,855
2016-11-02T10:33:10.620Z,920
2016-11-02T10:34:10.299Z,575
2016-11-02T10:35:10.561Z,600
2016-11-02T10:36:10.240Z,740
2016-11-02T10:37:10.516Z,570
2016-11-02T10:38:10.484Z,545
2016-11-02T10:39:10.155Z,745
2016-11-02T10:40:10.436Z,600
2016-11-02T10:41:09.805Z,530
2016-11-02T10:42:10.391Z,715
2016-11-02T10:43:09.753Z,500
2016-11-02T10:44:09.722Z,785
2016-11-02T10:45:09.696Z,695
2016-11-02T10:46:10.261Z,580
2016-11-02T10:47:10.250Z,985
2016-11-02T10:48:09.916Z,490
2016-11-02T10:49:10.181Z,1280
2016-11-02T10:50:09.859Z,785
2016-11-02T10:51:10.136Z,640
2016-11-02T10:52:09.509Z,540
2016-11-02T10:53:10.084Z,1075
2016-11-02T10:54:09.448Z,990
2016-11-02T10:55:10.071Z,470
2016-11-02T10:56:09.337Z,410
2016-11-02T10:57:09.974Z,360
2016-11-02T10:58:09.645Z,415
2016-11-02T10:59:09.313Z,345
2016-11-02T11:00:09.582Z,295
2016-11-02T11:01:09.271Z,340
2016-11-02T11:02:09.529Z,350
2016-11-02T11:03:09.205Z,315
2016-11-02T11:04:09.486Z,270
2016-11-02T11:05:09.750Z,270
2016-11-02T11:06:08.856Z,285
2016-11-02T11:07:09.396Z,275
2016-11-02T11:08:09.063Z,265
2016-11-02T11:09:09.334Z,245
2016-11-02T11:10:09.326Z,290
2016-11-02T11:11:09.276Z,250
2016-11-02T11:12:09.559Z,285
2016-11-02T11:13:09.222Z,215
2016-11-02T11:14:09.505Z,210
2016-11-02T11:15:09.468Z,220
2016-11-02T11:16:09.437Z,320
2016-11-02T11:17:09.119Z,305
2016-11-02T11:18:09.083Z,350
2016-11-02T11:19:08.745Z,325
2016-11-02T11:20:08.715Z,320
2016-11-02T11:21:09.066Z,290
2016-11-02T11:22:08.666Z,290
2016-11-02T11:23:08.970Z,285
2016-11-02T11:24:09.201Z,305
2016-11-02T11:25:08.881Z,340
2016-11-02T11:26:09.144Z,315
2016-11-02T11:27:08.207Z,290
2016-11-02T11:28:08.480Z,310
2016-11-02T11:29:08.756Z,285
2016-11-02T11:30:08.749Z,265
2016-11-02T11:31:08.384Z,275
2016-11-02T11:32:08.961Z,315
2016-11-02T11:33:08.959Z,255
2016-11-02T11:34:08.297Z,240
2016-11-02T11:35:08.885Z,340
2016-11-02T11:36:08.540Z,360
2016-11-02T11:37:08.502Z,320
2016-11-02T11:38:08.521Z,345
2016-11-02T11:39:08.456Z,335
2016-11-02T11:40:08.423Z,325
2016-11-02T11:41:08.404Z,295
2016-11-02T11:42:08.358Z,275
2016-11-02T11:43:08.366Z,270
2016-11-02T11:44:08.292Z,280
2016-11-02T11:45:08.307Z,275
2016-11-02T11:46:08.236Z,260
2016-11-02T11:47:07.900Z,265
2016-11-02T11:48:08.173Z,265
2016-11-02T11:49:08.443Z,250
2016-11-02T11:50:07.811Z,230
2016-11-02T11:51:08.082Z,225
2016-11-02T11:52:08.049Z,225
2016-11-02T11:53:07.726Z,215
2016-11-02T11:54:07.994Z,225
2016-11-02T11:55:07.955Z,260
2016-11-02T11:56:07.930Z,265
2016-11-02T11:57:08.199Z,270
2016-11-02T11:58:08.168Z,280
2016-11-02T11:59:07.835Z,285
2016-11-02T12:00:08.104Z,265
2016-11-02T12:01:07.469Z,235
2016-11-02T12:02:07.737Z,240
2016-11-02T12:03:07.705Z,245
2016-11-02T12:04:07.376Z,240
2016-11-02T12:05:07.346Z,245
2016-11-02T12:06:07.917Z,235
2016-11-02T12:07:07.583Z,215
2016-11-02T12:08:07.855Z,200
2016-11-02T12:09:07.824Z,190
2016-11-02T12:10:07.185Z,185
2016-11-02T12:11:07.455Z,180
2016-11-02T12:12:07.426Z,170
2016-11-02T12:13:06.791Z,150
2016-11-02T12:14:07.666Z,135
2016-11-02T12:15:07.334Z,130
2016-11-02T12:16:07.319Z,125
2016-11-02T12:17:07.575Z,130
2016-11-02T12:18:07.535Z,135
2016-11-02T12:19:07.205Z,150
2016-11-02T12:20:06.873Z,160
2016-11-02T12:21:07.148Z,160
2016-11-02T12:22:06.807Z,175
2016-11-02T12:23:07.377Z,190
2016-11-02T12:24:06.441Z,190
2016-11-02T12:25:07.015Z,185
2016-11-02T12:26:06.985Z,185
2016-11-02T12:27:07.249Z,180
2016-11-02T12:28:06.916Z,180
2016-11-02T12:29:06.884Z,180
2016-11-02T12:30:06.857Z,165
2016-11-02T12:31:07.124Z,185
2016-11-02T12:32:07.102Z,175
2016-11-02T12:33:06.758Z,170
2016-11-02T12:34:07.054Z,175
2016-11-02T12:35:06.997Z,165
2016-11-02T12:36:06.665Z,155
2016-11-02T12:37:06.631Z,145
2016-11-02T12:38:06.905Z,135
2016-11-02T12:39:06.570Z,125
2016-11-02T12:40:06.534Z,105
2016-11-02T12:41:06.241Z,95
2016-11-02T12:42:06.774Z,90
2016-11-02T12:43:06.750Z,90
2016-11-02T12:44:06.097Z,90
2016-11-02T12:45:06.080Z,90
2016-11-02T12:46:06.645Z,85
2016-11-02T12:47:06.318Z,80
2016-11-02T12:48:06.583Z,75
2016-11-02T12:49:05.945Z,70
2016-11-02T12:50:05.915Z,75
2016-11-02T12:51:06.492Z,80
2016-11-02T12:52:06.139Z,85
2016-11-02T12:53:06.119Z,75
2016-11-02T12:54:06.385Z,65
2016-11-02T12:55:06.045Z,60
2016-11-02T12:56:06.045Z,60
2016-11-02T12:57:05.678Z,60
2016-11-02T12:58:05.953Z,65
2016-11-02T12:59:06.221Z,75
2016-11-02T13:00:06.182Z,80
2016-11-02T13:01:06.148Z,75
2016-11-02T13:02:05.824Z,65
2016-11-02T13:03:06.084Z,65
2016-11-02T13:04:05.454Z,65
2016-11-02T13:05:05.720Z,60
2016-11-02T13:06:05.976Z,50
2016-11-02T13:07:05.358Z,45
2016-11-02T13:08:05.313Z,45
2016-11-02T13:09:05.587Z,40
2016-11-02T13:10:05.547Z,35
2016-11-02T13:11:05.521Z,40
2016-11-02T13:12:05.179Z,45
2016-11-02T13:13:05.771Z,45
2016-11-02T13:14:05.444Z,50
2016-11-02T13:15:05.683Z,45
2016-11-02T13:16:05.350Z,35
2016-11-02T13:17:05.315Z,30
2016-11-02T13:18:05.587Z,30
2016-11-02T13:19:05.542Z,30
2016-11-02T13:20:05.214Z,30
2016-11-02T13:21:04.880Z,30
2016-11-02T13:22:05.445Z,35
2016-11-02T13:23:05.417Z,35
2016-11-02T13:24:05.075Z,30
2016-11-02T13:25:05.042Z,30
2016-11-02T13:26:05.005Z,30
2016-11-02T13:27:04.971Z,30
2016-11-02T13:28:05.241Z,25
2016-11-02T13:29:04.303Z,25
2016-11-02T13:30:05.170Z,25
2016-11-02T13:31:04.837Z,20
2016-11-02T13:32:04.838Z,20
2016-11-02T13:33:04.778Z,20
2016-11-02T13:34:04.426Z,20
2016-11-02T13:35:04.704Z,25
2016-11-02T13:36:04.664Z,25
2016-11-02T13:37:04.635Z,20
2016-11-02T13:38:04.298Z,20
2016-11-02T13:39:04.256Z,20
2016-11-02T13:40:04.224Z,20
2016-11-02T13:41:04.488Z,20
2016-11-02T13:42:04.456Z,25
2016-11-02T13:43:04.718Z,25
2016-11-02T13:44:04.384Z,25
2016-11-02T13:45:04.687Z,25
2016-11-02T13:46:04.009Z,25
2016-11-02T13:47:04.298Z,25
2016-11-02T13:48:03.641Z,20
2016-11-02T13:49:04.514Z,20
2016-11-02T13:50:04.173Z,20
2016-11-02T13:51:04.143Z,20
2016-11-02T13:52:04.415Z,20
2016-11-02T13:53:04.075Z,15
2016-11-02T13:54:04.339Z,10
2016-11-02T13:55:04.002Z,10
2016-11-02T13:56:04.271Z,10
2016-11-02T13:57:04.245Z,10
2016-11-02T13:58:04.191Z,15
2016-11-02T13:59:03.856Z,15
2016-11-02T14:00:03.521Z,10
2016-11-02T14:01:03.787Z,10
2016-11-02T14:02:04.057Z,5
2016-11-02T14:03:03.419Z,5
2016-11-02T14:04:03.683Z,5
2016-11-02T14:05:03.661Z,5
2016-11-02T14:06:03.922Z,5
2016-11-02T14:07:03.875Z,5
2016-11-02T14:08:03.557Z,5
2016-11-02T14:09:03.812Z,5
2016-11-02T14:10:03.473Z,5
2016-11-02T14:11:03.799Z,5
2016-11-02T14:12:03.441Z,5
2016-11-02T14:13:03.368Z,10
2016-11-02T14:14:02.720Z,10
2016-11-02T14:15:03.293Z,10
2016-11-02T14:16:03.556Z,10
2016-11-02T14:17:03.220Z,10
2016-11-02T14:18:03.487Z,10